Time;durP1;ratioP1;P1;durP2;ratioP2;P2;SDS_P1;SDS_P2;PMS_P1;PMS_P2;Temp;Humidity;BMP_temperature;BMP_pressure;BME280_temperature;BME280_humidity;BME280_pressure;Samples;Min_cycle;Max_cycle;Signal;HPM_P1;HPM_P2
2022/12/27 00:02:12;;;;;;;127.03;51.88;;;;;;;3.84;100.00;98198.28;4990682;28;20027;-77
2022/12/27 00:04:38;;;;;;;112.68;47.88;;;;;;;3.74;100.00;98177.41;4966774;28;20429;-76
2022/12/27 00:07:04;;;;;;;118.13;50.97;;;;;;;3.72;100.00;98187.19;4980416;28;20014;-76
2022/12/27 00:09:29;;;;;;;217.68;80.53;;;;;;;3.76;100.00;98187.06;4993037;28;20057;-77
2022/12/27 00:11:55;;;;;;;111.32;43.38;;;;;;;3.81;100.00;98187.78;4968443;28;20061;-76
2022/12/27 00:14:21;;;;;;;124.70;46.92;;;;;;;3.76;100.00;98181.75;4974193;28;20030;-77
2022/12/27 00:16:46;;;;;;;108.78;41.72;;;;;;;3.81;100.00;98173.72;4971132;28;20449;-77
2022/12/27 00:19:12;;;;;;;122.82;48.05;;;;;;;3.93;100.00;98184.00;4978157;28;20041;-77
2022/12/27 00:21:37;;;;;;;88.90;36.42;;;;;;;3.96;100.00;98188.34;4968367;28;20065;-78
2022/12/27 00:24:03;;;;;;;63.13;24.10;;;;;;;4.02;100.00;98174.94;4967888;28;20097;-78
2022/12/27 00:26:30;;;;;;;36.78;16.35;;;;;;;4.22;100.00;98177.91;4990880;28;20034;-78
2022/12/27 00:28:56;;;;;;;81.53;32.65;;;;;;;4.33;100.00;98184.69;4990373;28;20019;-78
2022/12/27 00:31:24;;;;;;;132.85;48.95;;;;;;;4.41;100.00;98178.28;4967067;28;20573;-77
2022/12/27 00:33:52;;;;;;;102.30;41.47;;;;;;;4.39;100.00;98143.94;4968503;28;20045;-78
2022/12/27 00:36:29;;;;;;;75.47;30.15;;;;;;;4.69;100.00;98166.91;4973339;28;20030;-77
2022/12/27 00:45:53;;;;;;;54.20;23.08;;;;;;;4.26;100.00;98093.09;4938775;29;20071;-77
2022/12/27 00:48:18;;;;;;;65.60;29.25;;;;;;;4.42;100.00;98135.91;4954491;29;20046;-77
2022/12/27 00:50:44;;;;;;;55.53;22.08;;;;;;;4.39;100.00;98138.63;4989070;28;20043;-76
2022/12/27 00:53:10;;;;;;;41.65;19.23;;;;;;;4.44;100.00;98160.53;4994092;28;20041;-78
2022/12/27 00:55:37;;;;;;;42.15;19.15;;;;;;;4.35;100.00;98160.81;4977428;28;20121;-77
2022/12/27 00:58:03;;;;;;;41.45;18.23;;;;;;;4.33;100.00;98158.22;4973704;28;20036;-76
2022/12/27 01:00:29;;;;;;;24.30;10.20;;;;;;;4.29;100.00;98166.25;4973573;28;20505;-77
2022/12/27 01:02:54;;;;;;;39.72;17.27;;;;;;;4.34;100.00;98167.88;4958640;28;20190;-77
2022/12/27 01:05:21;;;;;;;31.23;14.50;;;;;;;4.29;100.00;98160.97;4980155;28;20494;-77
2022/12/27 01:07:49;;;;;;;41.38;18.20;;;;;;;4.33;100.00;98157.34;4968924;28;20060;-76
2022/12/27 01:10:14;;;;;;;39.53;18.00;;;;;;;4.44;100.00;98159.66;4980151;28;20023;-76
2022/12/27 01:12:40;;;;;;;35.78;16.65;;;;;;;4.33;100.00;98152.03;4989970;28;20046;-77
2022/12/27 01:15:07;;;;;;;30.90;13.98;;;;;;;4.48;100.00;98166.63;4976890;28;20030;-76
2022/12/27 01:17:33;;;;;;;31.08;14.30;;;;;;;4.55;100.00;98162.91;4969382;28;20042;-77
2022/12/27 01:19:58;;;;;;;25.45;10.07;;;;;;;4.49;100.00;98153.31;4968848;28;20045;-77
2022/12/27 01:22:24;;;;;;;26.67;10.30;;;;;;;4.74;100.00;98157.03;4987461;28;20584;-78
2022/12/27 01:24:50;;;;;;;21.60;9.50;;;;;;;4.91;100.00;98152.09;4973401;28;20217;-77
2022/12/27 01:27:15;;;;;;;28.48;11.57;;;;;;;5.05;100.00;98133.13;4970244;28;20022;-77
2022/12/27 01:29:41;;;;;;;33.03;13.27;;;;;;;5.19;100.00;98145.97;4961128;28;20039;-77
2022/12/27 01:32:06;;;;;;;34.28;13.50;;;;;;;5.11;100.00;98130.28;4981834;28;20114;-76
2022/12/27 01:34:32;;;;;;;29.38;12.77;;;;;;;5.08;100.00;98129.50;4972204;28;20548;-76
2022/12/27 01:36:57;;;;;;;34.22;13.32;;;;;;;5.12;100.00;98125.84;4968648;28;20089;-76
2022/12/27 01:39:23;;;;;;;30.77;12.00;;;;;;;5.15;100.00;98118.66;4976548;28;20030;-76
2022/12/27 01:44:38;;;;;;;33.55;14.15;;;;;;;5.19;100.00;98124.75;4993118;28;20405;-76
2022/12/27 01:47:19;;;;;;;44.35;19.88;;;;;;;5.05;100.00;98119.00;4984610;28;20030;-77
2022/12/27 01:50:05;;;;;;;29.20;12.30;;;;;;;5.13;100.00;98131.13;4986126;28;20527;-77
2022/12/27 01:56:28;;;;;;;34.67;15.77;;;;;;;5.15;100.00;98134.59;4917469;29;20551;-77
2022/12/27 01:59:04;;;;;;;33.13;14.45;;;;;;;5.03;100.00;98112.88;4969343;28;20652;-76
2022/12/27 02:01:34;;;;;;;13.27;6.20;;;;;;;5.08;100.00;98126.84;4978848;28;20022;-78
2022/12/27 02:04:06;;;;;;;23.75;10.18;;;;;;;5.08;100.00;98113.59;4966533;28;20110;-77
2022/12/27 02:06:32;;;;;;;29.80;13.57;;;;;;;5.16;100.00;98122.19;4991054;28;20486;-76
2022/12/27 02:09:14;;;;;;;32.28;13.60;;;;;;;5.22;100.00;98122.00;4967694;28;20188;-77
2022/12/27 02:11:52;;;;;;;30.08;14.73;;;;;;;5.19;100.00;98111.50;4975982;28;20107;-77
2022/12/27 02:14:45;;;;;;;34.38;13.88;;;;;;;5.22;100.00;98104.31;4982957;28;20031;-77
2022/12/27 02:17:19;;;;;;;21.23;9.20;;;;;;;5.33;100.00;98104.81;4967776;28;20194;-77
2022/12/27 02:19:52;;;;;;;23.02;11.35;;;;;;;5.32;100.00;98110.19;4987814;28;20445;-78
2022/12/27 02:25:57;;;;;;;23.08;9.20;;;;;;;5.34;100.00;98097.75;4974353;28;20081;-78
2022/12/27 02:28:32;;;;;;;12.35;5.68;;;;;;;5.80;100.00;98105.91;4974267;28;20125;-76
2022/12/27 02:31:07;;;;;;;10.98;5.60;;;;;;;5.79;100.00;98088.25;4979234;28;20425;-77
2022/12/27 02:33:36;;;;;;;10.15;5.28;;;;;;;5.90;100.00;98083.47;4963135;28;20097;-77
2022/12/27 02:36:09;;;;;;;15.77;7.60;;;;;;;5.74;100.00;98066.31;4957159;28;20026;-78
2022/12/27 02:38:47;;;;;;;17.27;7.68;;;;;;;5.81;100.00;98077.59;4970913;28;20037;-76
2022/12/27 02:58:53;;;;;;;9.75;4.43;;;;;;;6.24;100.00;98071.66;4988890;28;20053;-85
2022/12/27 03:05:01;;;;;;;10.98;4.40;;;;;;;6.44;100.00;98064.69;4988549;28;20112;-85
2022/12/27 03:07:34;;;;;;;7.78;3.97;;;;;;;6.58;100.00;98071.28;4985155;28;20486;-84
2022/12/27 03:16:09;;;;;;;9.50;3.90;;;;;;;6.80;100.00;98073.03;5003372;28;20033;-84
2022/12/27 03:25:26;;;;;;;6.60;3.92;;;;;;;6.88;100.00;98044.38;4975205;28;20033;-84
2022/12/27 03:27:36;;;;;;;7.43;4.10;;;;;;;7.04;100.00;98042.81;4997914;28;20032;-84
2022/12/27 03:38:45;;;;;;;10.70;4.10;;;;;;;6.77;100.00;98029.75;4993192;28;20088;-85
2022/12/27 03:44:22;;;;;;;10.10;4.30;;;;;;;6.60;100.00;98034.88;4994059;28;20029;-83
2022/12/27 03:46:46;;;;;;;7.82;3.75;;;;;;;6.80;100.00;98050.94;4990298;28;20090;-85
2022/12/27 03:49:32;;;;;;;10.65;3.75;;;;;;;6.85;100.00;98039.19;4975359;28;20054;-84
2022/12/27 03:52:05;;;;;;;12.15;3.78;;;;;;;6.88;100.00;98035.53;4984440;28;20484;-86
2022/12/27 03:54:38;;;;;;;10.52;5.30;;;;;;;6.88;100.00;98027.56;4975912;28;20505;-84
2022/12/27 03:57:07;;;;;;;10.05;4.38;;;;;;;6.92;100.00;98040.66;4969176;28;20033;-82
2022/12/27 03:59:33;;;;;;;11.45;4.47;;;;;;;6.93;100.00;98046.84;4993177;28;20029;-86
2022/12/27 04:01:59;;;;;;;12.82;4.88;;;;;;;6.83;100.00;98038.34;4972236;28;20029;-84
2022/12/27 04:04:25;;;;;;;10.45;5.13;;;;;;;6.70;100.00;98017.66;4985584;28;20214;-85
2022/12/27 04:06:51;;;;;;;7.57;3.30;;;;;;;6.86;100.00;98046.22;4992766;28;20461;-84
2022/12/27 04:36:36;;;;;;;8.68;4.55;;;;;;;7.44;100.00;98036.78;4991832;28;20037;-84
2022/12/27 04:39:02;;;;;;;9.68;4.82;;;;;;;7.52;100.00;98031.09;4974364;28;20034;-85
2022/12/27 04:55:24;;;;;;;9.13;4.28;;;;;;;8.00;100.00;98038.78;4996265;28;20053;-85
2022/12/27 04:57:50;;;;;;;6.07;3.50;;;;;;;7.90;100.00;98022.34;4976648;28;20026;-76
2022/12/27 05:03:04;;;;;;;10.57;3.97;;;;;;;7.89;100.00;98025.94;4994614;28;20045;-86
2022/12/27 05:05:30;;;;;;;7.18;3.58;;;;;;;7.71;100.00;98026.75;4983681;28;20558;-86
2022/12/27 05:16:08;;;;;;;8.68;3.33;;;;;;;8.06;100.00;98020.72;4978716;28;20038;-84
2022/12/27 05:18:34;;;;;;;6.68;3.17;;;;;;;8.04;100.00;98013.75;4961835;28;20035;-86
2022/12/27 05:21:04;;;;;;;5.05;2.70;;;;;;;8.16;100.00;98021.19;4978771;28;20035;-84
2022/12/27 05:26:22;;;;;;;4.80;3.10;;;;;;;8.09;100.00;98006.44;4979388;28;20100;-87
2022/12/27 05:28:50;;;;;;;8.10;3.88;;;;;;;8.01;100.00;98004.09;4961998;28;20029;-86
2022/12/27 05:31:15;;;;;;;15.30;4.47;;;;;;;8.01;100.00;98008.56;4962850;28;20070;-87
2022/12/27 05:33:41;;;;;;;38.95;16.17;;;;;;;7.75;100.00;97991.06;4977401;28;20038;-86
2022/12/27 05:36:07;;;;;;;24.42;10.10;;;;;;;7.75;100.00;98016.84;4960917;28;20038;-86
2022/12/27 05:38:33;;;;;;;17.65;7.40;;;;;;;7.71;100.00;98007.22;4961115;28;20035;-85
2022/12/27 05:44:06;;;;;;;35.85;14.77;;;;;;;7.64;100.00;97988.00;4966772;28;20439;-86
2022/12/27 05:46:32;;;;;;;26.17;11.85;;;;;;;7.76;100.00;98011.41;4977630;28;20034;-84
2022/12/27 05:48:57;;;;;;;37.92;14.82;;;;;;;7.78;100.00;98024.69;4976536;28;20026;-84
2022/12/27 05:51:23;;;;;;;26.25;9.70;;;;;;;7.80;100.00;98017.47;4960478;28;20109;-84
2022/12/27 05:53:51;;;;;;;19.13;8.73;;;;;;;7.97;100.00;98034.44;4961030;28;20126;-86
2022/12/27 05:56:19;;;;;;;30.15;12.85;;;;;;;8.03;100.00;98023.53;4961886;28;20030;-86
2022/12/27 05:58:51;;;;;;;26.42;11.38;;;;;;;7.76;100.00;97976.81;4978289;28;20046;-87
2022/12/27 06:01:17;;;;;;;37.88;15.80;;;;;;;8.14;100.00;98025.72;4962176;28;20494;-86
2022/12/27 06:03:43;;;;;;;25.98;9.38;;;;;;;8.24;100.00;98023.53;4977128;28;20031;-86
2022/12/27 06:06:09;;;;;;;16.15;7.57;;;;;;;8.54;100.00;98030.16;4960966;28;20034;-88
2022/12/27 06:08:35;;;;;;;23.45;8.68;;;;;;;8.96;100.00;98029.94;4978158;28;20035;-87
2022/12/27 06:11:14;;;;;;;12.98;5.68;;;;;;;9.33;100.00;98029.00;4962559;28;20470;-86
2022/12/27 06:13:42;;;;;;;12.15;5.70;;;;;;;9.80;100.00;98032.84;4964479;28;20034;-86
2022/12/27 06:16:10;;;;;;;8.52;4.38;;;;;;;10.29;100.00;98016.00;4969963;28;20026;-86
2022/12/27 06:18:37;;;;;;;10.07;3.88;;;;;;;10.75;100.00;98006.34;4991752;28;20407;-86
2022/12/27 06:21:08;;;;;;;7.10;3.17;;;;;;;10.99;100.00;98005.91;4988564;28;20021;-87
2022/12/27 06:23:36;;;;;;;7.38;3.17;;;;;;;11.38;100.00;97988.44;4983695;28;20025;-87
2022/12/27 06:26:11;;;;;;;10.68;4.07;;;;;;;11.62;98.78;97985.28;4982397;28;20030;-85
2022/12/27 06:28:37;;;;;;;10.18;4.72;;;;;;;11.85;96.34;97987.47;4982553;28;20477;-86
2022/12/27 06:31:02;;;;;;;11.52;5.10;;;;;;;11.86;95.03;97973.13;4982664;28;20036;-87
2022/12/27 06:33:28;;;;;;;8.25;4.22;;;;;;;11.95;93.65;97967.22;4968006;28;20041;-90
2022/12/27 06:35:54;;;;;;;17.90;7.78;;;;;;;12.17;92.25;97978.38;4968559;28;20531;-86
2022/12/27 06:38:20;;;;;;;12.98;7.57;;;;;;;12.16;91.91;97982.00;4974119;28;20035;-89
2022/12/27 06:40:46;;;;;;;28.85;14.52;;;;;;;12.02;92.33;97973.94;4965776;28;20038;-84
2022/12/27 06:43:11;;;;;;;11.02;6.35;;;;;;;11.86;92.71;97967.78;4995227;28;20044;-83
2022/12/27 06:45:37;;;;;;;16.55;8.40;;;;;;;11.74;94.26;97977.44;4968791;28;20041;-85
2022/12/27 06:48:03;;;;;;;13.68;7.03;;;;;;;11.51;95.61;97977.00;4976280;28;20029;-86
2022/12/27 06:50:29;;;;;;;17.23;10.23;;;;;;;11.36;97.32;97968.94;4973643;28;20038;-85
2022/12/27 06:52:54;;;;;;;38.90;15.73;;;;;;;11.34;97.75;97981.56;4992488;28;20026;-85
2022/12/27 06:55:20;;;;;;;29.02;13.80;;;;;;;11.32;98.21;97983.44;4970255;28;20385;-85
2022/12/27 06:57:45;;;;;;;43.78;17.20;;;;;;;11.42;97.49;97978.41;4969257;28;20041;-86
2022/12/27 07:00:14;;;;;;;118.53;33.38;;;;;;;12.29;94.94;97993.72;4978717;28;20022;-84
2022/12/27 07:02:41;;;;;;;22.17;9.02;;;;;;;13.58;82.29;97978.16;4975669;28;20070;-85
2022/12/27 07:05:07;;;;;;;15.95;7.00;;;;;;;14.61;72.93;97964.75;4995400;28;20036;-83
2022/12/27 07:07:32;;;;;;;9.15;4.95;;;;;;;15.97;65.26;97981.47;4988052;28;20060;-84
2022/12/27 07:09:58;;;;;;;14.15;6.50;;;;;;;17.46;58.57;97964.97;4988418;28;20519;-88
2022/12/27 07:12:24;;;;;;;17.27;8.20;;;;;;;18.72;53.57;97978.53;4971759;28;20047;-86
2022/12/27 07:14:49;;;;;;;6.43;3.85;;;;;;;19.64;48.63;97934.88;4982735;28;20045;-87
2022/12/27 07:17:15;;;;;;;49.92;25.73;;;;;;;20.40;47.74;97942.13;4972378;28;20094;-84
2022/12/27 07:19:40;;;;;;;12.65;5.63;;;;;;;21.39;44.01;97930.59;4970827;28;20077;-84
2022/12/27 07:22:06;;;;;;;11.93;5.82;;;;;;;21.35;44.41;97918.28;4964559;28;20685;-78
2022/12/27 07:24:32;;;;;;;15.35;9.02;;;;;;;22.30;42.99;97944.97;4992039;28;20031;-79
2022/12/27 07:26:59;;;;;;;6.05;3.58;;;;;;;22.50;40.52;97921.91;4957196;28;20030;-78
2022/12/27 07:29:25;;;;;;;54.55;27.70;;;;;;;23.25;40.95;97931.22;4963859;28;20026;-79
2022/12/27 07:31:50;;;;;;;121.93;73.10;;;;;;;23.56;42.39;97940.59;4990850;28;20034;-76
2022/12/27 07:34:17;;;;;;;24.50;14.32;;;;;;;23.07;39.83;97902.16;4971290;28;20560;-78
2022/12/27 07:36:43;;;;;;;17.33;7.95;;;;;;;23.14;39.63;97908.66;4969481;28;20040;-81
2022/12/27 07:39:09;;;;;;;10.15;6.20;;;;;;;23.22;38.95;97875.91;4972774;28;20104;-79
2022/12/27 07:41:35;;;;;;;11.98;6.68;;;;;;;23.26;39.10;97906.47;4984415;28;20105;-82
2022/12/27 07:44:02;;;;;;;6.38;3.67;;;;;;;23.69;38.04;97886.31;4982616;28;20037;-84
2022/12/27 07:46:28;;;;;;;26.63;13.80;;;;;;;23.31;39.34;97906.00;4964818;28;20493;-79
2022/12/27 07:48:55;;;;;;;26.90;12.50;;;;;;;22.91;40.56;97926.66;4971823;28;20022;-80
2022/12/27 07:51:22;;;;;;;13.70;6.15;;;;;;;23.21;39.99;97926.09;4969296;28;20026;-80
2022/12/27 07:53:51;;;;;;;8.80;4.45;;;;;;;22.98;40.18;97915.94;4981218;28;20062;-78
2022/12/27 07:56:19;;;;;;;7.20;3.78;;;;;;;21.22;43.83;97916.94;4963843;28;20497;-79
2022/12/27 07:58:46;;;;;;;6.10;3.97;;;;;;;21.66;42.63;97923.41;4982695;28;20073;-77
2022/12/27 08:47:27;;;;;;;10.02;4.72;;;;;;;24.37;36.78;97905.16;5652603;22;15266449;-74
2022/12/27 08:49:53;;;;;;;6.72;3.83;;;;;;;24.32;36.04;97900.22;6311318;22;20011;-73
2022/12/27 08:52:18;;;;;;;10.05;4.38;;;;;;;23.87;37.34;97900.66;6311368;22;20468;-73
2022/12/27 08:54:44;;;;;;;7.13;4.00;;;;;;;23.36;38.05;97900.88;6309267;22;20026;-72
2022/12/27 08:57:13;;;;;;;10.80;3.80;;;;;;;23.18;37.27;97882.75;6311026;22;20002;-73
2022/12/27 08:59:41;;;;;;;8.15;2.60;;;;;;;23.04;37.49;97888.81;6311179;22;20030;-72
2022/12/27 09:02:09;;;;;;;6.53;3.25;;;;;;;22.54;38.70;97880.56;6311275;22;20018;-71
2022/12/27 09:04:34;;;;;;;6.95;3.58;;;;;;;22.64;39.19;97888.63;6285658;22;20513;-73
2022/12/27 09:07:00;;;;;;;9.35;5.00;;;;;;;23.48;37.18;97880.47;6313187;22;20057;-80
2022/12/27 09:09:26;;;;;;;10.55;6.53;;;;;;;23.78;36.99;97884.47;6285941;22;20007;-73
2022/12/27 09:11:51;;;;;;;7.28;4.25;;;;;;;23.62;36.71;97861.56;6309930;22;20035;-73
2022/12/27 09:14:17;;;;;;;10.07;4.20;;;;;;;22.67;37.92;97845.50;6303627;22;20007;-76
2022/12/27 09:16:42;;;;;;;6.95;3.30;;;;;;;23.34;37.39;97860.09;6276203;22;20035;-74
2022/12/27 09:19:09;;;;;;;11.88;5.18;;;;;;;23.67;37.15;97861.03;6276197;22;20007;-76
2022/12/27 09:21:35;;;;;;;10.77;4.75;;;;;;;23.02;37.18;97833.56;6276050;22;20003;-81
2022/12/27 09:24:01;;;;;;;7.85;4.10;;;;;;;23.47;36.54;97846.00;6276919;22;20439;-74
2022/12/27 09:26:29;;;;;;;6.38;3.97;;;;;;;23.37;37.33;97843.38;6301810;22;20007;-75
2022/12/27 09:28:55;;;;;;;11.27;5.10;;;;;;;23.92;36.41;97840.91;6302111;22;20026;-75
2022/12/27 09:31:21;;;;;;;8.68;4.93;;;;;;;23.25;37.42;97827.50;6301616;22;20068;-75
2022/12/27 09:33:47;;;;;;;8.07;4.72;;;;;;;23.94;36.34;97835.25;6301517;22;20010;-74
2022/12/27 09:36:15;;;;;;;6.50;3.92;;;;;;;24.60;35.72;97854.19;6301534;22;20358;-75
2022/12/27 09:38:41;;;;;;;8.98;3.90;;;;;;;25.12;35.09;97841.69;6301737;22;20003;-75
2022/12/27 09:41:16;;;;;;;4.53;2.58;;;;;;;24.52;35.21;97824.09;6301463;22;20407;-75
2022/12/27 09:44:03;;;;;;;6.88;3.10;;;;;;;24.05;35.47;97821.25;6303312;22;20011;-74
2022/12/27 09:46:45;;;;;;;5.70;3.67;;;;;;;24.02;35.68;97821.59;6275687;22;20098;-76
2022/12/27 09:49:12;;;;;;;6.93;2.33;;;;;;;23.65;36.15;97803.88;6303063;22;20007;-74
2022/12/27 09:51:48;;;;;;;5.07;3.30;;;;;;;23.52;36.27;97797.19;6303578;22;20049;-73
2022/12/27 09:54:18;;;;;;;4.22;2.70;;;;;;;23.41;37.34;97811.19;6302101;22;20026;-74
2022/12/27 09:56:43;;;;;;;5.05;2.70;;;;;;;24.23;35.79;97831.00;6276742;22;20006;-72
2022/12/27 09:59:31;;;;;;;7.07;4.32;;;;;;;24.00;36.25;97829.97;6304262;22;20429;-72
2022/12/27 10:01:56;;;;;;;28.73;13.35;;;;;;;24.26;35.60;97821.59;6276889;22;20007;-72
2022/12/27 10:04:22;;;;;;;33.47;17.80;;;;;;;24.64;34.92;97817.25;6302626;22;20103;-74
2022/12/27 10:06:47;;;;;;;13.02;6.97;;;;;;;25.51;34.33;97843.53;6276986;22;20034;-73
2022/12/27 10:09:38;;;;;;;5.07;3.58;;;;;;;24.67;34.84;97805.94;6304179;22;20011;-72
2022/12/27 10:12:16;;;;;;;6.90;3.10;;;;;;;24.68;34.99;97805.75;6302353;22;20107;-72
2022/12/27 10:15:08;;;;;;;8.38;4.50;;;;;;;24.38;35.05;97802.94;6277243;22;20011;-72
2022/12/27 10:18:01;;;;;;;12.75;3.58;;;;;;;24.17;35.51;97803.50;6302681;22;20007;-74
2022/12/27 10:20:47;;;;;;;5.57;3.28;;;;;;;24.31;35.61;97813.72;6304013;22;20442;-75
2022/12/27 10:23:17;;;;;;;9.63;3.78;;;;;;;24.80;34.28;97792.50;6276525;22;20045;-75
2022/12/27 10:25:45;;;;;;;5.97;3.25;;;;;;;24.03;35.72;97791.34;6276536;22;20034;-74
2022/12/27 10:28:18;;;;;;;7.60;4.32;;;;;;;22.71;37.19;97757.91;6303207;22;20461;-74
2022/12/27 10:30:44;;;;;;;8.52;5.45;;;;;;;21.38;39.58;97753.84;6303051;22;19995;-75
2022/12/27 10:33:20;;;;;;;7.63;3.05;;;;;;;21.12;40.50;97766.50;6302856;22;20003;-74
2022/12/27 10:35:47;;;;;;;6.18;3.30;;;;;;;20.56;41.29;97759.41;6302884;22;20023;-75
2022/12/27 10:38:12;;;;;;;6.30;3.50;;;;;;;20.39;41.44;97754.78;6302935;22;20034;-74
2022/12/27 10:40:45;;;;;;;8.35;4.40;;;;;;;20.09;42.48;97757.75;6302481;22;20010;-74
2022/12/27 10:43:17;;;;;;;9.88;4.32;;;;;;;19.44;44.18;97756.78;6302056;22;20007;-74
2022/12/27 10:45:43;;;;;;;6.22;2.97;;;;;;;18.83;44.32;97743.47;6301776;22;20018;-71
2022/12/27 10:48:16;;;;;;;5.47;3.35;;;;;;;18.58;45.44;97748.59;6302013;22;20007;-73
2022/12/27 10:50:47;;;;;;;7.05;3.72;;;;;;;18.42;45.97;97758.06;6303579;22;20350;-72
2022/12/27 10:53:53;;;;;;;7.68;3.85;;;;;;;18.39;46.93;97768.31;6302034;22;20018;-72
2022/12/27 10:56:27;;;;;;;10.30;5.07;;;;;;;18.49;47.46;97777.34;6296189;22;20007;-72
2022/12/27 10:59:17;;;;;;;8.73;5.00;;;;;;;18.33;47.50;97771.56;6303973;22;20045;-72
2022/12/27 11:01:48;;;;;;;9.38;5.28;;;;;;;18.33;47.46;97777.00;6301261;22;20408;-72
2022/12/27 11:04:21;;;;;;;6.22;3.40;;;;;;;18.28;47.64;97779.25;6301189;22;20034;-72
2022/12/27 11:07:14;;;;;;;15.30;6.88;;;;;;;18.28;47.51;97771.97;6301304;22;20102;-73
2022/12/27 11:09:42;;;;;;;10.77;5.95;;;;;;;18.30;47.62;97777.28;6288673;22;20088;-73
2022/12/27 11:12:17;;;;;;;16.42;6.75;;;;;;;18.09;48.80;97784.59;6302351;22;20431;-73
2022/12/27 11:14:55;;;;;;;15.15;7.00;;;;;;;18.03;49.26;97785.97;6303287;22;20007;-71
2022/12/27 11:17:41;;;;;;;14.50;5.32;;;;;;;17.96;49.27;97779.41;6303179;22;20003;-71
2022/12/27 11:20:36;;;;;;;12.23;5.55;;;;;;;17.88;49.89;97787.31;6281415;22;20359;-72
2022/12/27 11:23:09;;;;;;;15.30;7.18;;;;;;;17.92;50.67;97793.31;6276287;22;20010;-73
2022/12/27 11:25:56;;;;;;;19.20;7.32;;;;;;;18.01;50.11;97795.22;6301852;22;20108;-72
2022/12/27 11:28:36;;;;;;;17.42;8.13;;;;;;;17.96;50.49;97794.78;6275616;22;20002;-75
2022/12/27 11:31:07;;;;;;;16.55;7.10;;;;;;;17.84;50.57;97785.91;6300866;22;20435;-75
2022/12/27 11:33:44;;;;;;;12.05;6.05;;;;;;;17.83;51.78;97800.41;6300824;22;20056;-74
2022/12/27 11:36:10;;;;;;;9.77;4.78;;;;;;;17.92;51.24;97798.75;6300681;22;20442;-75
2022/12/27 11:38:38;;;;;;;16.30;6.10;;;;;;;17.92;51.24;97810.44;6274985;22;20007;-75
2022/12/27 11:41:13;;;;;;;13.02;6.03;;;;;;;18.00;51.72;97817.88;6300477;22;20113;-75
2022/12/27 11:43:54;;;;;;;10.63;5.10;;;;;;;18.07;51.99;97830.75;6300752;22;20003;-75
2022/12/27 11:46:30;;;;;;;10.15;3.90;;;;;;;17.88;52.12;97834.19;6301875;22;20026;-76
2022/12/27 11:48:57;;;;;;;9.30;4.75;;;;;;;17.14;58.46;97837.00;6300725;22;20014;-76
2022/12/27 11:51:37;;;;;;;23.42;6.70;;;;;;;17.02;61.45;97847.00;6302137;22;20015;-75
2022/12/27 11:54:18;;;;;;;17.77;6.70;;;;;;;17.29;63.25;97858.19;6274540;22;20011;-75
2022/12/27 11:56:48;;;;;;;14.73;7.95;;;;;;;17.55;62.18;97872.28;6301682;22;20007;-76
2022/12/27 11:59:33;;;;;;;19.77;8.90;;;;;;;17.76;60.78;97873.16;6300430;22;20007;-76
2022/12/27 12:02:07;;;;;;;14.65;7.03;;;;;;;17.42;61.90;97882.38;6299987;22;20017;-75
2022/12/27 12:04:35;;;;;;;14.43;7.82;;;;;;;16.99;63.92;97881.53;6300228;22;20776;-75
2022/12/27 12:07:22;;;;;;;11.50;7.10;;;;;;;16.75;65.71;97889.81;6301602;22;20458;-74
2022/12/27 12:10:12;;;;;;;15.80;7.10;;;;;;;16.52;68.22;97897.03;6301537;22;20023;-75
2022/12/27 12:12:43;;;;;;;10.35;5.50;;;;;;;16.48;69.65;97897.41;6300209;22;20008;-75
2022/12/27 12:15:34;;;;;;;11.67;5.77;;;;;;;16.29;71.51;97903.41;6300128;22;20094;-75
2022/12/27 12:18:02;;;;;;;11.30;6.47;;;;;;;16.03;73.29;97905.44;6300089;22;20236;-74
2022/12/27 12:20:39;;;;;;;22.17;7.40;;;;;;;15.94;73.76;97914.25;6301249;22;20123;-73
2022/12/27 12:23:12;;;;;;;13.82;7.55;;;;;;;16.04;73.42;97911.72;6302741;22;20003;-75
2022/12/27 12:26:08;;;;;;;20.67;12.20;;;;;;;16.14;73.66;97913.59;6301479;22;20003;-75
2022/12/27 12:28:57;;;;;;;12.40;7.78;;;;;;;16.01;74.36;97926.31;6301546;22;20041;-75
2022/12/27 12:31:59;;;;;;;16.05;9.57;;;;;;;16.18;74.59;97935.81;6301676;22;20463;-74
2022/12/27 12:34:51;;;;;;;25.17;9.90;;;;;;;16.47;74.03;97938.88;6301511;22;20006;-76
2022/12/27 12:37:50;;;;;;;30.25;13.15;;;;;;;16.65;76.38;97953.66;6258933;22;20007;-75
2022/12/27 12:40:52;;;;;;;12.32;5.90;;;;;;;16.83;70.78;97944.06;6274108;22;20000;-75
2022/12/27 12:43:36;;;;;;;;;;;;;;;18.11;66.19;97962.16;6301844;22;20034;-75
2022/12/27 12:46:34;;;;;;;12.93;6.75;;;;;;;17.90;61.72;97938.78;6302375;22;19934;-75
2022/12/27 12:49:17;;;;;;;16.00;6.28;;;;;;;18.36;64.34;97972.59;6254756;22;20030;-74
2022/12/27 12:52:09;;;;;;;11.48;6.22;;;;;;;18.07;62.55;97954.41;6306836;22;20500;-75
2022/12/27 12:55:00;;;;;;;12.68;7.05;;;;;;;18.49;62.78;97983.25;6306804;22;20439;-76
2022/12/27 12:58:05;;;;;;;13.55;7.57;;;;;;;18.15;62.13;97970.88;6305156;22;20011;-75
2022/12/27 13:00:42;;;;;;;16.30;8.10;;;;;;;18.25;62.32;97986.19;6304988;22;20106;-76
2022/12/27 13:03:21;;;;;;;19.70;9.60;;;;;;;18.23;63.52;97985.50;6279640;22;20007;-76
2022/12/27 13:06:23;;;;;;;17.10;6.78;;;;;;;18.20;62.73;97991.16;6305178;22;20400;-74
2022/12/27 13:09:02;;;;;;;20.73;9.32;;;;;;;17.74;62.93;97964.44;6306469;22;20422;-75
2022/12/27 13:11:55;;;;;;;11.05;5.93;;;;;;;17.34;64.73;97977.69;6306603;22;20061;-82
2022/12/27 13:14:45;;;;;;;15.07;6.43;;;;;;;16.94;66.05;97979.22;6305865;22;20014;-83
2022/12/27 13:17:20;;;;;;;22.73;9.60;;;;;;;16.48;68.91;97971.19;6306788;22;20409;-84
2022/12/27 13:19:59;;;;;;;20.42;10.43;;;;;;;16.34;70.59;97993.00;6280474;22;20015;-83
2022/12/27 13:22:50;;;;;;;31.88;14.63;;;;;;;16.36;71.44;97992.88;6284069;22;20011;-83
2022/12/27 13:25:19;;;;;;;28.02;13.07;;;;;;;16.39;72.66;98011.56;6287532;22;20331;-78
2022/12/27 13:28:14;;;;;;;24.08;9.75;;;;;;;16.40;73.19;98014.13;6307479;22;20007;-76
2022/12/27 13:30:39;;;;;;;30.33;12.48;;;;;;;16.22;73.30;98018.25;6284854;22;20003;-75
2022/12/27 13:33:14;;;;;;;26.00;12.02;;;;;;;16.28;74.17;98033.97;6303132;22;20415;-77
2022/12/27 13:35:39;;;;;;;20.35;8.55;;;;;;;15.92;76.02;98032.25;6303084;22;20411;-75
2022/12/27 13:38:23;;;;;;;12.48;6.35;;;;;;;15.79;75.97;98028.75;6303184;22;20010;-77
2022/12/27 13:41:26;;;;;;;14.68;7.95;;;;;;;15.52;78.16;98039.78;6301289;22;20011;-76
2022/12/27 13:44:16;;;;;;;26.75;8.40;;;;;;;15.37;79.18;98035.47;6302835;22;20007;-76
2022/12/27 13:47:19;;;;;;;18.15;9.23;;;;;;;15.40;79.88;98037.94;6301290;22;20026;-76
2022/12/27 13:50:13;;;;;;;80.63;38.80;;;;;;;15.47;82.83;98063.50;6301128;22;19999;-75
2022/12/27 13:52:48;;;;;;;57.17;27.08;;;;;;;15.51;81.52;98069.53;6302927;22;20447;-74
2022/12/27 13:55:32;;;;;;;29.95;13.57;;;;;;;15.40;80.14;98061.34;6275415;22;20003;-75
2022/12/27 13:58:08;;;;;;;17.15;9.50;;;;;;;15.24;79.87;98060.72;6302724;22;20003;-75
2022/12/27 14:01:13;;;;;;;29.83;15.10;;;;;;;15.11;83.32;98076.91;6301364;22;20003;-75
2022/12/27 14:03:44;;;;;;;28.48;12.50;;;;;;;14.99;81.76;98064.31;6301581;22;20393;-76
2022/12/27 14:06:28;;;;;;;36.53;14.77;;;;;;;14.91;81.74;98070.28;6301078;22;20469;-76
2022/12/27 14:09:06;;;;;;;22.67;10.90;;;;;;;14.86;82.27;98068.88;6302927;22;20340;-76
2022/12/27 14:11:38;;;;;;;16.23;8.63;;;;;;;14.90;81.45;98081.13;6302479;22;20029;-76
2022/12/27 14:14:04;;;;;;;21.00;9.02;;;;;;;14.85;81.95;98078.78;6300575;22;20015;-76
2022/12/27 14:17:01;;;;;;;21.65;10.38;;;;;;;14.91;82.53;98083.75;6301043;22;20010;-76
2022/12/27 14:19:48;;;;;;;24.73;12.18;;;;;;;14.88;82.75;98083.97;6299203;22;20007;-76
2022/12/27 14:22:58;;;;;;;71.35;29.38;;;;;;;14.86;83.04;98087.75;6302256;22;20050;-76
2022/12/27 14:25:42;;;;;;;42.67;19.08;;;;;;;14.85;82.56;98089.56;6127902;23;20060;-76
2022/12/27 14:28:25;;;;;;;34.35;16.10;;;;;;;14.86;82.40;98093.13;6177586;23;20012;-75
2022/12/27 14:31:30;;;;;;;33.67;14.77;;;;;;;14.83;83.47;98096.88;6262477;22;20110;-75
2022/12/27 14:34:08;;;;;;;33.78;15.00;;;;;;;14.81;84.63;98095.25;6280292;22;20007;-76
2022/12/27 14:36:48;;;;;;;18.77;10.27;;;;;;;14.76;83.87;98098.28;6301008;22;20086;-75
2022/12/27 14:40:05;;;;;;;25.52;15.20;;;;;;;14.63;86.44;98108.19;6300451;22;20453;-76